createdAt,value
2022-11-16T00:00:21.338Z,99683.78
2022-11-16T00:03:23.704Z,99671.31
2022-11-16T00:06:26.606Z,99670.81
2022-11-16T00:09:31.909Z,99668.75
2022-11-16T00:12:34.053Z,99665.63
2022-11-16T00:15:36.572Z,99657.03
2022-11-16T00:18:38.640Z,99653.41
2022-11-16T00:21:41.631Z,99651.81
2022-11-16T00:24:43.705Z,99645.63
2022-11-16T00:27:46.053Z,99647.22
2022-11-16T00:30:57.160Z,99648.59
2022-11-16T00:33:59.738Z,99647.50
2022-11-16T00:37:02.711Z,99639.25
2022-11-16T00:40:05.678Z,99636.75
2022-11-16T00:43:07.977Z,99631.69
2022-11-16T00:46:10.611Z,99620.59
2022-11-16T00:49:12.794Z,99620.59
2022-11-16T00:52:15.157Z,99609.72
2022-11-16T00:55:17.230Z,99608.03
2022-11-16T00:58:19.576Z,99608.44
2022-11-16T01:01:23.858Z,99608.81
2022-11-16T01:04:26.361Z,99602.50
2022-11-16T01:07:28.528Z,99598.72
2022-11-16T01:10:30.908Z,99610.59
2022-11-16T01:13:33.206Z,99598.53
2022-11-16T01:16:36.031Z,99593.81
2022-11-16T01:19:38.740Z,99586.84
2022-11-16T01:22:41.481Z,99582.69
2022-11-16T01:25:43.697Z,99574.63
2022-11-16T01:28:46.111Z,99568.78
2022-11-16T01:31:48.522Z,99566.69
2022-11-16T01:34:51.303Z,99561.16
2022-11-16T01:37:54.331Z,99562.16
2022-11-16T01:40:57.052Z,99557.88
2022-11-16T01:44:02.797Z,99550.72
2022-11-16T01:47:16.463Z,99544.09
2022-11-16T01:50:20.698Z,99538.09
2022-11-16T01:53:24.879Z,99536.19
2022-11-16T01:56:27.795Z,99525.28
2022-11-16T01:59:32.799Z,99528.87
2022-11-16T02:02:35.198Z,99531.59
2022-11-16T02:05:52.780Z,99523.53
2022-11-16T02:09:49.773Z,99516.88
2022-11-16T02:13:02.644Z,99521.47
2022-11-16T02:16:39.063Z,99515.97
2022-11-16T02:19:59.941Z,99504.69
2022-11-16T02:23:04.862Z,99504.41
2022-11-16T02:26:38.672Z,99497.28
2022-11-16T02:29:45.495Z,99487.31
2022-11-16T02:33:01.740Z,99490.31
2022-11-16T02:36:07.627Z,99485.72
2022-11-16T02:39:16.389Z,99484.63
2022-11-16T02:42:26.322Z,99486.03
2022-11-16T02:45:32.317Z,99478.44
2022-11-16T02:48:39.050Z,99475.59
2022-11-16T02:51:42.838Z,99479.88
2022-11-16T02:54:45.261Z,99476.41
2022-11-16T02:58:09.573Z,99468.31
2022-11-16T03:01:19.018Z,99466.56
2022-11-16T03:04:36.220Z,99464.38
2022-11-16T03:07:46.279Z,99452.66
2022-11-16T03:11:20.254Z,99462.34
2022-11-16T03:14:29.344Z,99452.66
2022-11-16T03:17:42.105Z,99453.94
2022-11-16T03:20:48.079Z,99451.41
2022-11-16T03:23:50.683Z,99451.87
2022-11-16T03:27:02.277Z,99452.22
2022-11-16T03:30:14.495Z,99438.59
2022-11-16T03:33:38.762Z,99435.91
2022-11-16T03:36:44.782Z,99429.56
2022-11-16T03:39:48.723Z,99427.50
2022-11-16T03:42:52.095Z,99424.50
2022-11-16T03:45:55.238Z,99421.81
2022-11-16T03:48:59.514Z,99414.22
2022-11-16T03:52:02.261Z,99414.84
2022-11-16T03:55:05.576Z,99416.09
2022-11-16T03:58:09.153Z,99410.91
2022-11-16T04:01:11.546Z,99404.72
2022-11-16T04:04:35.101Z,99400.91
2022-11-16T04:07:57.461Z,99398.84
2022-11-16T04:11:20.282Z,99396.78
2022-11-16T04:14:42.896Z,99390.63
2022-11-16T04:18:04.275Z,99389.97
2022-11-16T04:21:36.733Z,99381.59
2022-11-16T04:24:44.075Z,99370.84
2022-11-16T04:28:05.073Z,99380.97
2022-11-16T04:31:26.077Z,99381.75
2022-11-16T04:34:48.794Z,99381.13
2022-11-16T04:37:53.277Z,99368.16
2022-11-16T04:40:55.656Z,99368.47
2022-11-16T04:43:58.857Z,99375.91
2022-11-16T04:47:06.830Z,99368.78
2022-11-16T04:50:09.829Z,99372.75
2022-11-16T04:53:13.659Z,99364.19
2022-11-16T04:56:18.219Z,99364.19
2022-11-16T04:59:21.298Z,99356.59
2022-11-16T05:02:23.669Z,99364.34
2022-11-16T05:05:26.130Z,99366.72
2022-11-16T05:08:28.726Z,99360.37
2022-11-16T05:11:31.021Z,99354.69
2022-11-16T05:14:33.961Z,99353.25
2022-11-16T05:17:36.329Z,99359.28
2022-11-16T05:20:58.148Z,99354.69
2022-11-16T05:24:19.283Z,99358.16
2022-11-16T05:27:23.011Z,99351.22
2022-11-16T05:30:25.425Z,99346.16
2022-11-16T05:33:27.823Z,99348.97
2022-11-16T05:36:29.913Z,99342.66
2022-11-16T05:39:32.303Z,99340.44
2022-11-16T05:42:34.684Z,99322.72
2022-11-16T05:45:37.478Z,99321.13
2022-11-16T05:48:41.626Z,99329.81
2022-11-16T05:51:45.831Z,99324.91
2022-11-16T05:54:48.409Z,99316.53
2022-11-16T05:57:51.133Z,99316.34
2022-11-16T06:00:53.293Z,99311.28
2022-11-16T06:03:56.022Z,99308.13
2022-11-16T06:06:58.776Z,99309.88
2022-11-16T06:10:03.188Z,99308.28
2022-11-16T06:13:06.672Z,99311.28
2022-11-16T06:16:09.509Z,99315.87
2022-11-16T06:19:11.690Z,99317.00
2022-11-16T06:22:14.095Z,99317.31
2022-11-16T06:25:16.207Z,99315.56
2022-11-16T06:28:18.780Z,99309.56
2022-11-16T06:31:21.204Z,99314.16
2022-11-16T06:34:24.639Z,99314.31
2022-11-16T06:37:27.011Z,99313.06
2022-11-16T06:40:29.408Z,99310.19
2022-11-16T06:43:31.872Z,99306.87
2022-11-16T06:46:35.384Z,99289.63
2022-11-16T06:49:38.010Z,99285.78
2022-11-16T06:52:41.336Z,99292.59
2022-11-16T06:55:43.630Z,99287.53
2022-11-16T06:58:46.163Z,99289.44
2022-11-16T07:01:49.068Z,99288.84
2022-11-16T07:04:52.029Z,99284.84
2022-11-16T07:07:55.325Z,99290.88
2022-11-16T07:11:04.266Z,99287.88
2022-11-16T07:14:08.371Z,99284.53
2022-11-16T07:17:11.515Z,99278.53
2022-11-16T07:20:15.067Z,99273.62
2022-11-16T07:23:19.844Z,99279.34
2022-11-16T07:26:22.751Z,99280.25
2022-11-16T07:29:26.355Z,99274.25
2022-11-16T07:32:35.544Z,99265.06
2022-11-16T07:35:38.288Z,99269.66
2022-11-16T07:38:40.572Z,99266.03
2022-11-16T07:41:44.210Z,99266.63
2022-11-16T07:44:47.233Z,99269.31
2022-11-16T07:47:52.335Z,99257.47
2022-11-16T07:51:03.305Z,99255.25
2022-11-16T07:54:06.649Z,99257.94
2022-11-16T07:57:08.853Z,99255.88
2022-11-16T08:00:11.757Z,99249.53
2022-11-16T08:03:19.234Z,99245.59
2022-11-16T08:06:28.218Z,99240.34
2022-11-16T08:09:30.742Z,99231.81
2022-11-16T08:12:33.458Z,99238.13
2022-11-16T08:15:35.545Z,99240.34
2022-11-16T08:18:39.872Z,99243.16
2022-11-16T08:21:42.348Z,99241.44
2022-11-16T08:24:44.898Z,99237.28
2022-11-16T08:27:47.765Z,99238.87
2022-11-16T08:30:53.981Z,99233.47
2022-11-16T08:33:56.808Z,99241.72
2022-11-16T08:36:59.400Z,99230.00
2022-11-16T08:40:03.621Z,99231.28
2022-11-16T08:43:08.268Z,99225.56
2022-11-16T08:46:11.102Z,99232.53
2022-11-16T08:49:13.829Z,99232.41
2022-11-16T08:52:16.017Z,99226.06
2022-11-16T08:55:18.863Z,99230.31
2022-11-16T08:58:22.637Z,99221.16
2022-11-16T09:01:30.361Z,99218.25
2022-11-16T09:04:36.843Z,99223.94
2022-11-16T09:07:40.104Z,99223.50
2022-11-16T09:10:42.227Z,99217.28
2022-11-16T09:13:46.914Z,99216.19
2022-11-16T09:16:49.057Z,99204.59
2022-11-16T09:19:51.425Z,99210.81
2022-11-16T09:22:53.518Z,99220.75
2022-11-16T09:25:56.069Z,99214.56
2022-11-16T09:29:00.176Z,99202.31
2022-11-16T09:32:02.948Z,99204.28
2022-11-16T09:35:05.334Z,99205.03
2022-11-16T09:38:09.864Z,99196.94
2022-11-16T09:41:15.033Z,99196.16
2022-11-16T09:44:31.699Z,99195.53
2022-11-16T09:47:36.698Z,99198.41
2022-11-16T09:50:45.673Z,99187.28
2022-11-16T09:53:58.349Z,99192.34
2022-11-16T09:57:12.052Z,99182.84
2022-11-16T10:00:23.662Z,99171.56
2022-11-16T10:03:28.730Z,99164.28
2022-11-16T10:07:02.764Z,99162.56
2022-11-16T10:10:06.139Z,99153.88
2022-11-16T10:13:31.592Z,99156.41
2022-11-16T10:16:48.522Z,99149.28
2022-11-16T10:20:07.357Z,99146.13
2022-11-16T10:23:31.801Z,99141.97
2022-11-16T10:26:56.160Z,99132.94
2022-11-16T10:30:07.675Z,99135.13
2022-11-16T10:33:22.007Z,99133.31
2022-11-16T10:36:30.190Z,99129.31
2022-11-16T10:39:34.122Z,99127.16
2022-11-16T10:42:40.924Z,99117.13
2022-11-16T10:46:00.815Z,99116.63
2022-11-16T10:49:21.520Z,99110.53
2022-11-16T10:52:24.119Z,99104.53
2022-11-16T10:55:28.659Z,99095.22
2022-11-16T10:58:50.004Z,99101.13
2022-11-16T11:01:57.432Z,99087.31
2022-11-16T11:05:20.266Z,99080.53
2022-11-16T11:08:30.449Z,99082.41
2022-11-16T11:11:51.278Z,99077.53
2022-11-16T11:14:58.097Z,99072.00
2022-11-16T11:18:23.277Z,99071.47
2022-11-16T11:21:27.526Z,99067.81
2022-11-16T11:24:44.032Z,99065.63
2022-11-16T11:27:47.370Z,99065.56
2022-11-16T11:31:07.096Z,99060.00
2022-11-16T11:34:09.384Z,99051.56
2022-11-16T11:37:27.532Z,99049.41
2022-11-16T11:40:30.961Z,99052.53
2022-11-16T11:43:37.191Z,99041.22
2022-11-16T11:47:35.281Z,99033.87
2022-11-16T11:50:33.481Z,99032.94
2022-11-16T11:53:59.241Z,99028.75
2022-11-16T11:57:04.353Z,99028.69
2022-11-16T12:00:07.670Z,99025.84
2022-11-16T12:03:41.675Z,99022.62
2022-11-16T12:06:54.074Z,99025.84
2022-11-16T12:10:27.390Z,99023.69
2022-11-16T12:14:08.720Z,99025.97
2022-11-16T12:17:24.967Z,99016.31
2022-11-16T12:21:00.789Z,99023.28
2022-11-16T12:24:30.438Z,99018.34
2022-11-16T12:28:03.949Z,99016.16
2022-11-16T12:31:24.352Z,99013.09
2022-11-16T12:34:52.500Z,99008.34
2022-11-16T12:37:59.574Z,99010.41
2022-11-16T12:41:49.977Z,99008.69
2022-11-16T12:45:10.184Z,99004.63
2022-11-16T12:48:33.384Z,99002.13
2022-11-16T12:51:51.990Z,98991.59
2022-11-16T12:55:28.478Z,98987.66
2022-11-16T12:59:19.977Z,98992.59
2022-11-16T13:02:47.138Z,98995.87
2022-11-16T13:06:06.646Z,98995.59
2022-11-16T13:09:30.025Z,98992.38
2022-11-16T13:12:35.267Z,98995.28
2022-11-16T13:15:40.695Z,98992.91
2022-11-16T13:18:44.140Z,98997.75
2022-11-16T13:22:11.512Z,98990.88
2022-11-16T13:25:40.400Z,98990.88
2022-11-16T13:29:22.090Z,98994.81
2022-11-16T13:32:34.861Z,98992.88
2022-11-16T13:35:38.589Z,98989.38
2022-11-16T13:38:53.708Z,98984.47
2022-11-16T13:42:11.398Z,98982.53
2022-11-16T13:45:22.077Z,98981.09
2022-11-16T13:48:27.424Z,98973.84
2022-11-16T13:51:29.517Z,98983.91
2022-11-16T13:54:50.475Z,98982.94
2022-11-16T13:57:55.611Z,98982.00
2022-11-16T14:01:02.475Z,98974.31
2022-11-16T14:04:34.770Z,98968.00
2022-11-16T14:07:47.093Z,98973.19
2022-11-16T14:10:52.016Z,98968.50
2022-11-16T14:13:54.799Z,98963.97
2022-11-16T14:16:57.154Z,98969.38
2022-11-16T14:19:59.325Z,98963.19
2022-11-16T14:23:09.085Z,98966.88
2022-11-16T14:26:26.446Z,98966.19
2022-11-16T14:29:47.669Z,98955.16
2022-11-16T14:32:52.643Z,98962.75
2022-11-16T14:35:55.682Z,98949.16
2022-11-16T14:39:23.040Z,98951.13
2022-11-16T14:42:38.207Z,98958.88
2022-11-16T14:46:04.586Z,98955.97
2022-11-16T14:49:13.743Z,98951.00
2022-11-16T14:52:20.557Z,98952.91
2022-11-16T14:55:25.677Z,98942.47
2022-11-16T14:58:28.749Z,98945.16
2022-11-16T15:01:38.887Z,98943.69
2022-11-16T15:04:41.051Z,98934.69
2022-11-16T15:07:45.099Z,98931.53
2022-11-16T15:10:52.322Z,98928.06
2022-11-16T15:13:55.480Z,98923.84
2022-11-16T15:16:59.916Z,98925.28
2022-11-16T15:20:14.117Z,98935.59
2022-11-16T15:23:17.310Z,98931.78
2022-11-16T15:26:23.877Z,98922.22
2022-11-16T15:29:26.086Z,98925.38
2022-11-16T15:32:28.778Z,98922.09
2022-11-16T15:35:36.274Z,98920.75
2022-11-16T15:38:38.776Z,98915.81
2022-11-16T15:41:41.859Z,98915.38
2022-11-16T15:44:44.828Z,98912.56
2022-11-16T15:47:47.368Z,98911.44
2022-11-16T15:51:15.887Z,98914.91
2022-11-16T15:54:29.786Z,98922.34
2022-11-16T15:57:32.146Z,98914.13
2022-11-16T16:00:36.819Z,98920.66
2022-11-16T16:03:44.842Z,98908.28
2022-11-16T16:06:48.702Z,98912.69
2022-11-16T16:10:12.319Z,98910.13
2022-11-16T16:13:29.946Z,98909.97
2022-11-16T16:16:37.649Z,98910.44
2022-11-16T16:19:44.032Z,98909.56
2022-11-16T16:22:46.574Z,98914.50
2022-11-16T16:25:50.683Z,98914.38
2022-11-16T16:28:53.297Z,98906.41
2022-11-16T16:31:56.141Z,98913.00
2022-11-16T16:35:07.352Z,98902.81
2022-11-16T16:38:13.116Z,98911.87
2022-11-16T16:41:23.749Z,98909.63
2022-11-16T16:44:26.228Z,98906.16
2022-11-16T16:47:28.753Z,98909.19
2022-11-16T16:50:31.117Z,98909.97
2022-11-16T16:53:33.795Z,98908.06
2022-11-16T16:56:36.066Z,98906.06
2022-11-16T16:59:38.428Z,98904.00
2022-11-16T17:02:40.619Z,98903.56
2022-11-16T17:05:43.202Z,98899.59
2022-11-16T17:08:45.315Z,98899.88
2022-11-16T17:11:48.110Z,98893.38
2022-11-16T17:14:53.174Z,98891.91
2022-11-16T17:17:57.771Z,98891.31
2022-11-16T17:21:07.869Z,98887.63
2022-11-16T17:24:10.477Z,98889.22
2022-11-16T17:27:12.711Z,98893.38
2022-11-16T17:30:15.423Z,98881.88
2022-11-16T17:33:17.489Z,98883.13
2022-11-16T17:36:20.428Z,98886.41
2022-11-16T17:39:23.594Z,98885.16
2022-11-16T17:42:25.938Z,98887.50
2022-11-16T17:45:28.179Z,98878.53
2022-11-16T17:48:30.598Z,98887.06
2022-11-16T17:51:32.717Z,98881.00
2022-11-16T17:54:35.061Z,98878.56
2022-11-16T17:57:37.142Z,98883.47
2022-11-16T18:00:39.474Z,98874.16
2022-11-16T18:03:41.954Z,98879.75
2022-11-16T18:06:44.028Z,98874.94
2022-11-16T18:09:46.382Z,98871.03
2022-11-16T18:12:48.574Z,98873.72
2022-11-16T18:15:50.930Z,98872.78
2022-11-16T18:19:00.748Z,98875.16
2022-11-16T18:22:03.139Z,98868.09
2022-11-16T18:25:05.620Z,98869.44
2022-11-16T18:28:07.962Z,98867.84
2022-11-16T18:31:12.862Z,98862.47
2022-11-16T18:34:15.406Z,98869.31
2022-11-16T18:37:17.460Z,98862.69
2022-11-16T18:40:19.953Z,98862.69
2022-11-16T18:43:22.309Z,98867.41
2022-11-16T18:46:29.719Z,98862.47
2022-11-16T18:49:31.784Z,98872.69
2022-11-16T18:52:34.147Z,98861.69
2022-11-16T18:55:36.202Z,98864.50
2022-11-16T18:58:54.626Z,98872.25
2022-11-16T19:01:56.735Z,98860.25
2022-11-16T19:04:59.085Z,98862.16
2022-11-16T19:08:01.167Z,98854.28
2022-11-16T19:11:05.643Z,98858.97
2022-11-16T19:14:07.949Z,98863.78
2022-11-16T19:17:10.330Z,98855.84
2022-11-16T19:20:12.787Z,98853.16
2022-11-16T19:23:15.387Z,98861.03
2022-11-16T19:26:18.905Z,98859.19
2022-11-16T19:29:21.277Z,98848.88
2022-11-16T19:32:23.391Z,98844.16
2022-11-16T19:35:26.345Z,98848.09
2022-11-16T19:38:29.277Z,98844.38
2022-11-16T19:41:31.979Z,98845.31
2022-11-16T19:44:34.054Z,98843.72
2022-11-16T19:47:36.420Z,98845.06
2022-11-16T19:50:38.531Z,98845.84
2022-11-16T19:53:41.011Z,98836.06
2022-11-16T19:56:43.606Z,98838.44
2022-11-16T19:59:48.683Z,98831.94
2022-11-16T20:02:57.101Z,98843.50
2022-11-16T20:06:11.078Z,98843.16
2022-11-16T20:09:13.227Z,98840.00
2022-11-16T20:12:15.614Z,98843.94
2022-11-16T20:15:18.130Z,98841.25
2022-11-16T20:18:20.468Z,98846.19
2022-11-16T20:21:32.914Z,98854.12
2022-11-16T20:24:35.271Z,98845.72
2022-11-16T20:27:37.423Z,98842.22
2022-11-16T20:30:45.641Z,98845.50
2022-11-16T20:33:52.578Z,98845.41
2022-11-16T20:36:54.978Z,98847.63
2022-11-16T20:39:57.323Z,98838.31
2022-11-16T20:43:00.211Z,98839.00
2022-11-16T20:46:02.316Z,98842.81
2022-11-16T20:49:04.778Z,98840.13
2022-11-16T20:52:06.859Z,98841.69
2022-11-16T20:55:09.741Z,98839.72
2022-11-16T20:58:12.184Z,98844.84
2022-11-16T21:01:21.233Z,98842.22
2022-11-16T21:04:23.411Z,98841.69
2022-11-16T21:07:25.785Z,98833.28
2022-11-16T21:10:28.744Z,98834.41
2022-11-16T21:13:49.714Z,98821.06
2022-11-16T21:16:51.830Z,98826.56
2022-11-16T21:20:20.132Z,98826.44
2022-11-16T21:23:16.549Z,98818.56
2022-11-16T21:26:21.516Z,98811.16
2022-11-16T21:29:25.912Z,98814.28
2022-11-16T21:32:28.300Z,98802.28
2022-11-16T21:35:30.467Z,98810.94
2022-11-16T21:38:34.028Z,98814.75
2022-11-16T21:41:36.138Z,98805.31
2022-11-16T21:44:44.498Z,98805.56
2022-11-16T21:47:46.599Z,98792.88
2022-11-16T21:51:02.584Z,98791.31
2022-11-16T21:54:04.884Z,98784.00
2022-11-16T21:57:07.584Z,98781.75
2022-11-16T22:00:10.570Z,98778.28
2022-11-16T22:03:13.553Z,98772.53
2022-11-16T22:06:35.119Z,98778.84
2022-11-16T22:09:37.348Z,98790.28
2022-11-16T22:12:39.801Z,98782.66
2022-11-16T22:15:41.906Z,98772.53
2022-11-16T22:18:44.561Z,98765.34
2022-11-16T22:21:46.671Z,98769.25
2022-11-16T22:24:49.084Z,98789.81
2022-11-16T22:28:20.341Z,98811.37
2022-11-16T22:31:14.923Z,98812.84
2022-11-16T22:34:17.046Z,98805.63
2022-11-16T22:37:19.382Z,98804.06
2022-11-16T22:40:21.646Z,98789.59
2022-11-16T22:43:27.054Z,98792.75
2022-11-16T22:46:29.185Z,98806.13
2022-11-16T22:49:31.680Z,98801.50
2022-11-16T22:52:33.805Z,98800.81
2022-11-16T22:55:38.068Z,98797.78
2022-11-16T22:58:40.564Z,98796.78
2022-11-16T23:01:43.206Z,98797.44
2022-11-16T23:04:45.452Z,98795.88
2022-11-16T23:07:47.809Z,98791.16
2022-11-16T23:11:15.320Z,98797.31
2022-11-16T23:14:36.363Z,98792.62
2022-11-16T23:17:38.474Z,98784.28
2022-11-16T23:20:59.652Z,98772.84
2022-11-16T23:24:20.585Z,98772.19
2022-11-16T23:27:30.148Z,98781.06
2022-11-16T23:30:34.975Z,98781.69
2022-11-16T23:33:47.764Z,98786.66
2022-11-16T23:36:49.867Z,98786.16
2022-11-16T23:39:52.282Z,98781.25
2022-11-16T23:43:14.085Z,98785.06
2022-11-16T23:46:16.435Z,98796.69
2022-11-16T23:49:18.589Z,98790.66
2022-11-16T23:52:20.932Z,98779.63
2022-11-16T23:55:23.158Z,98786.25
2022-11-16T23:58:25.518Z,98779.88
